Time;durP1;ratioP1;P1;durP2;ratioP2;P2;SDS_P1;SDS_P2;PMS_P1;PMS_P2;Temp;Humidity;BMP_temperature;BMP_pressure;BME280_temperature;BME280_humidity;BME280_pressure;Samples;Min_cycle;Max_cycle;Signal;HPM_P1;HPM_P2
2022/10/31 00:01:20;;;;;;;4.53;4.13;;;22.70;50.20;;;;;;4978588;28;20054;-62
2022/10/31 00:03:47;;;;;;;4.22;3.83;;;22.70;50.20;;;;;;4978796;28;20492;-63
2022/10/31 00:06:17;;;;;;;4.82;4.07;;;22.70;50.20;;;;;;4978955;28;20054;-63
2022/10/31 00:08:46;;;;;;;;;;;22.70;50.20;;;;;;4979631;28;20074;-62
2022/10/31 00:11:13;;;;;;;4.85;4.35;;;22.70;50.20;;;;;;4979023;28;19922;-62
2022/10/31 00:13:40;;;;;;;4.38;3.97;;;22.70;50.30;;;;;;4979061;28;20054;-62
2022/10/31 00:16:17;;;;;;;4.32;4.00;;;22.70;50.30;;;;;;4977124;28;20057;-62
2022/10/31 00:18:49;;;;;;;4.25;3.85;;;22.70;50.30;;;;;;4978827;28;20559;-63
2022/10/31 00:21:16;;;;;;;4.80;4.25;;;22.70;50.30;;;;;;4978485;28;20051;-62
2022/10/31 00:23:43;;;;;;;3.95;3.53;;;22.70;50.30;;;;;;4978234;28;20047;-62
2022/10/31 00:26:11;;;;;;;3.85;3.55;;;22.70;50.30;;;;;;4978565;28;20062;-62
2022/10/31 00:28:38;;;;;;;4.18;3.78;;;22.70;50.30;;;;;;4978678;28;20047;-62
2022/10/31 00:31:07;;;;;;;4.80;3.78;;;22.60;50.30;;;;;;4978792;28;20054;-62
2022/10/31 00:33:39;;;;;;;4.53;4.13;;;22.70;50.40;;;;;;4978864;28;20050;-62
2022/10/31 00:36:08;;;;;;;4.10;3.70;;;22.60;50.30;;;;;;4978271;28;20065;-62
2022/10/31 00:38:35;;;;;;;4.95;4.07;;;22.60;50.30;;;;;;4978401;28;20416;-62
2022/10/31 00:41:02;;;;;;;3.60;3.30;;;22.60;50.30;;;;;;4978350;28;20058;-62
2022/10/31 00:43:29;;;;;;;4.07;3.70;;;22.70;50.40;;;;;;4978409;28;20050;-62
2022/10/31 00:45:56;;;;;;;3.70;3.40;;;22.60;50.30;;;;;;4978189;28;20054;-62
2022/10/31 00:48:23;;;;;;;4.00;3.65;;;22.60;50.40;;;;;;4978276;28;20047;-59
2022/10/31 00:50:50;;;;;;;4.28;3.88;;;22.60;50.40;;;;;;4977161;28;20050;-62
2022/10/31 00:53:17;;;;;;;4.25;3.85;;;22.60;50.40;;;;;;4978276;28;20487;-62
2022/10/31 00:55:44;;;;;;;3.55;3.25;;;22.60;50.40;;;;;;4978598;28;20043;-62
2022/10/31 00:58:11;;;;;;;3.88;3.53;;;22.60;50.40;;;;;;4978074;28;20054;-63
2022/10/31 01:00:43;;;;;;;3.72;3.42;;;22.60;50.50;;;;;;4978529;28;20050;-62
2022/10/31 01:03:16;;;;;;;3.83;3.40;;;22.60;50.40;;;;;;4978003;28;20061;-63
2022/10/31 01:05:43;;;;;;;3.83;3.53;;;22.70;50.40;;;;;;4978071;28;20046;-63
2022/10/31 01:08:10;;;;;;;4.30;3.90;;;22.70;50.40;;;;;;4977878;28;20043;-63
2022/10/31 01:10:37;;;;;;;4.28;3.85;;;22.60;50.30;;;;;;4978154;28;20062;-63
2022/10/31 01:13:04;;;;;;;3.95;3.55;;;22.70;50.40;;;;;;4978233;28;20046;-62
2022/10/31 01:15:32;;;;;;;4.07;3.67;;;22.60;50.30;;;;;;4978286;28;20403;-62
2022/10/31 01:17:59;;;;;;;4.03;3.70;;;22.60;50.30;;;;;;4978121;28;20051;-62
2022/10/31 01:20:26;;;;;;;4.00;3.65;;;22.60;50.30;;;;;;4978303;28;20062;-62
2022/10/31 01:22:53;;;;;;;3.90;3.60;;;22.60;50.30;;;;;;4977799;28;20502;-63
2022/10/31 01:25:20;;;;;;;3.13;2.92;;;22.70;50.40;;;;;;4978845;28;20051;-63
2022/10/31 01:27:47;;;;;;;3.83;3.47;;;22.60;50.30;;;;;;4976758;28;20053;-62
2022/10/31 01:30:14;;;;;;;4.07;3.67;;;22.60;50.30;;;;;;4977798;28;20054;-59
2022/10/31 01:32:41;;;;;;;3.63;3.33;;;22.60;50.30;;;;;;4977707;28;20057;-62
2022/10/31 01:35:08;;;;;;;3.30;2.97;;;22.60;50.30;;;;;;4979500;28;20054;-62
2022/10/31 01:37:35;;;;;;;3.83;3.40;;;22.70;50.40;;;;;;4981596;28;20051;-62
2022/10/31 01:40:03;;;;;;;3.75;3.45;;;22.60;50.30;;;;;;4981951;28;20058;-62
2022/10/31 01:42:30;;;;;;;3.78;3.47;;;22.70;50.40;;;;;;4981664;28;20047;-62
2022/10/31 01:45:00;;;;;;;4.00;3.60;;;22.60;50.30;;;;;;4980632;28;20050;-62
2022/10/31 01:47:40;;;;;;;3.88;3.58;;;22.60;50.30;;;;;;4981508;28;20050;-62
2022/10/31 01:50:28;;;;;;;3.47;3.13;;;22.60;50.30;;;;;;4981468;28;20407;-62
2022/10/31 01:52:55;;;;;;;3.85;3.55;;;22.60;50.30;;;;;;4981756;28;20050;-62
2022/10/31 01:55:32;;;;;;;3.45;3.22;;;22.60;50.30;;;;;;4981494;28;20427;-62
2022/10/31 01:58:06;;;;;;;3.25;3.00;;;22.60;50.30;;;;;;4981571;28;20412;-62
2022/10/31 02:00:34;;;;;;;3.40;3.10;;;22.60;50.40;;;;;;4981616;28;20057;-63
2022/10/31 02:03:01;;;;;;;3.63;3.30;;;22.60;50.30;;;;;;4981258;28;20046;-62
2022/10/31 02:05:30;;;;;;;3.85;3.55;;;22.60;50.30;;;;;;4981466;28;20054;-62
2022/10/31 02:08:11;;;;;;;3.67;3.35;;;22.70;50.40;;;;;;4981149;28;20058;-62
2022/10/31 02:10:38;;;;;;;3.53;3.22;;;22.60;50.40;;;;;;4981266;28;20480;-62
2022/10/31 02:13:07;;;;;;;3.70;3.40;;;22.70;50.40;;;;;;4981210;28;20051;-62
2022/10/31 02:15:36;;;;;;;3.90;3.40;;;22.60;50.40;;;;;;4981275;28;20410;-62
2022/10/31 02:18:04;;;;;;;3.88;3.47;;;22.60;50.40;;;;;;4979630;28;20054;-62
2022/10/31 02:20:57;;;;;;;3.33;3.03;;;22.60;50.40;;;;;;4981039;28;20066;-62
2022/10/31 02:24:04;;;;;;;3.72;3.42;;;22.60;50.50;;;;;;4980935;28;20053;-62
2022/10/31 02:26:57;;;;;;;4.07;3.70;;;22.60;50.50;;;;;;4981586;28;20057;-62
2022/10/31 02:30:04;;;;;;;3.67;3.38;;;22.60;50.50;;;;;;4980578;28;20062;-62
2022/10/31 02:32:49;;;;;;;3.00;2.80;;;22.60;50.50;;;;;;4980605;28;20051;-65
2022/10/31 02:35:56;;;;;;;3.85;3.55;;;22.60;50.50;;;;;;4981147;28;20054;-63
2022/10/31 02:39:03;;;;;;;2.90;2.70;;;22.60;50.60;;;;;;4981344;28;20055;-62
2022/10/31 02:41:44;;;;;;;3.83;3.42;;;22.60;50.60;;;;;;4968523;28;20051;-62
2022/10/31 02:44:36;;;;;;;2.85;2.65;;;22.60;50.50;;;;;;4980539;28;20059;-62
2022/10/31 02:47:18;;;;;;;3.45;3.15;;;22.60;50.50;;;;;;4979562;28;20053;-62
2022/10/31 02:50:02;;;;;;;3.35;3.05;;;22.60;50.50;;;;;;4979595;28;20130;-62
2022/10/31 02:52:31;;;;;;;3.17;2.88;;;22.60;50.50;;;;;;4981309;28;20110;-62
2022/10/31 02:54:58;;;;;;;2.70;2.50;;;22.60;50.50;;;;;;4978900;28;20587;-62
2022/10/31 02:57:30;;;;;;;3.50;3.20;;;22.60;50.40;;;;;;4980501;28;20130;-62
2022/10/31 03:00:03;;;;;;;3.33;3.13;;;22.60;50.40;;;;;;4979047;28;20053;-63
2022/10/31 03:03:06;;;;;;;3.63;3.33;;;22.60;50.50;;;;;;4980069;28;20050;-63
2022/10/31 03:05:51;;;;;;;4.03;3.63;;;22.60;50.40;;;;;;4980339;28;20487;-62
2022/10/31 03:08:45;;;;;;;2.70;2.50;;;22.60;50.40;;;;;;4980349;28;20054;-63
2022/10/31 03:11:13;;;;;;;3.30;3.00;;;22.60;50.40;;;;;;4979360;28;20402;-63
2022/10/31 03:13:51;;;;;;;3.25;3.05;;;22.60;50.40;;;;;;4980094;28;20500;-62
2022/10/31 03:16:46;;;;;;;3.47;3.17;;;22.60;50.40;;;;;;4979494;28;20510;-62
2022/10/31 03:19:38;;;;;;;3.10;2.90;;;22.60;50.40;;;;;;4979245;28;20061;-63
2022/10/31 03:22:22;;;;;;;3.13;2.92;;;22.60;50.40;;;;;;4979766;28;20055;-62
2022/10/31 03:24:51;;;;;;;2.85;2.65;;;22.60;50.40;;;;;;4979697;28;20101;-63
2022/10/31 03:27:23;;;;;;;3.10;2.80;;;22.60;50.40;;;;;;4979927;28;20051;-62
2022/10/31 03:29:54;;;;;;;3.30;3.00;;;22.60;50.50;;;;;;4978739;28;20051;-62
2022/10/31 03:32:36;;;;;;;2.88;2.67;;;22.60;50.40;;;;;;4979513;28;20495;-62
2022/10/31 03:35:06;;;;;;;3.15;2.95;;;22.60;50.40;;;;;;4979722;28;20065;-62
2022/10/31 03:37:35;;;;;;;3.17;2.85;;;22.60;50.50;;;;;;4979622;28;20050;-62
2022/10/31 03:40:06;;;;;;;3.13;2.85;;;22.60;50.50;;;;;;4979744;28;20054;-59
2022/10/31 03:42:38;;;;;;;3.55;3.25;;;22.60;50.50;;;;;;4979339;28;20055;-62
2022/10/31 03:45:25;;;;;;;3.45;3.15;;;22.60;50.50;;;;;;4978105;28;20047;-63
2022/10/31 03:47:54;;;;;;;3.33;3.08;;;22.60;50.50;;;;;;4979062;28;20051;-62
2022/10/31 03:50:23;;;;;;;2.53;2.33;;;22.60;50.50;;;;;;4979580;28;20050;-63
2022/10/31 03:52:58;;;;;;;2.83;2.63;;;22.60;50.50;;;;;;4979533;28;20069;-63
2022/10/31 03:55:31;;;;;;;3.08;2.78;;;22.60;50.50;;;;;;4979316;28;20051;-62
2022/10/31 03:58:03;;;;;;;3.30;3.00;;;22.60;50.40;;;;;;4978769;28;20065;-62
2022/10/31 04:00:33;;;;;;;3.10;2.90;;;22.60;50.50;;;;;;4979149;28;20074;-62
2022/10/31 04:03:10;;;;;;;3.30;3.00;;;22.60;50.50;;;;;;4979968;28;20054;-62
2022/10/31 04:05:39;;;;;;;3.22;3.03;;;22.60;50.50;;;;;;4979240;28;20054;-62
2022/10/31 04:08:11;;;;;;;2.63;2.42;;;22.60;50.50;;;;;;4979047;28;20085;-62
2022/10/31 04:10:40;;;;;;;3.83;2.97;;;22.60;50.50;;;;;;4979093;28;20054;-62
2022/10/31 04:13:12;;;;;;;3.03;2.80;;;22.60;50.50;;;;;;4978835;28;20050;-62
2022/10/31 04:15:41;;;;;;;3.20;2.90;;;22.60;50.60;;;;;;4979052;28;20057;-62
2022/10/31 04:18:08;;;;;;;2.97;2.67;;;22.60;50.60;;;;;;4979002;28;20051;-62
2022/10/31 04:20:38;;;;;;;2.83;2.63;;;22.60;50.60;;;;;;4978732;28;20401;-62
2022/10/31 04:23:17;;;;;;;3.03;2.78;;;22.60;50.70;;;;;;4978834;28;20050;-61
2022/10/31 04:25:44;;;;;;;2.75;2.55;;;22.60;50.60;;;;;;4978836;28;20054;-62
2022/10/31 04:28:11;;;;;;;2.80;2.60;;;22.60;50.60;;;;;;4978369;28;20046;-62
2022/10/31 04:30:38;;;;;;;3.15;2.88;;;22.60;50.60;;;;;;4978768;28;20054;-62
2022/10/31 04:33:05;;;;;;;2.72;2.55;;;22.60;50.60;;;;;;4978576;28;20050;-62
2022/10/31 04:35:32;;;;;;;3.00;2.80;;;22.60;50.60;;;;;;4978649;28;20050;-62
2022/10/31 04:37:59;;;;;;;2.92;2.72;;;22.60;50.60;;;;;;4978734;28;20052;-62
2022/10/31 04:40:27;;;;;;;2.90;2.70;;;22.60;50.50;;;;;;4978440;28;20065;-62
2022/10/31 04:42:54;;;;;;;2.78;2.58;;;22.60;50.50;;;;;;4978539;28;20050;-62
2022/10/31 04:45:21;;;;;;;3.03;2.75;;;22.60;50.50;;;;;;4978401;28;20055;-62
2022/10/31 04:47:48;;;;;;;2.85;2.65;;;22.60;50.50;;;;;;4978613;28;20135;-62
2022/10/31 04:50:15;;;;;;;3.13;2.90;;;22.60;50.50;;;;;;4978508;28;20499;-62
2022/10/31 04:52:44;;;;;;;2.60;2.40;;;22.60;50.50;;;;;;4977372;28;20130;-62
2022/10/31 04:55:12;;;;;;;2.70;2.50;;;22.60;50.50;;;;;;4978264;28;20050;-62
2022/10/31 04:57:44;;;;;;;2.63;2.35;;;22.60;50.50;;;;;;4978248;28;20050;-62
2022/10/31 05:00:13;;;;;;;2.58;2.42;;;22.60;50.50;;;;;;4978437;28;20479;-62
2022/10/31 05:02:45;;;;;;;2.40;2.20;;;22.60;50.50;;;;;;4977941;28;20097;-62
2022/10/31 05:05:14;;;;;;;3.17;2.85;;;22.60;50.50;;;;;;4978367;28;20050;-62
2022/10/31 05:07:42;;;;;;;3.20;2.90;;;22.60;50.50;;;;;;4977978;28;20054;-62
2022/10/31 05:10:15;;;;;;;3.00;2.80;;;22.60;50.50;;;;;;4977835;28;20047;-62
2022/10/31 05:12:48;;;;;;;2.35;2.15;;;22.60;50.50;;;;;;4978027;28;20189;-62
2022/10/31 05:15:15;;;;;;;2.85;2.65;;;22.60;50.50;;;;;;4978116;28;20047;-62
2022/10/31 05:17:43;;;;;;;2.75;2.55;;;22.60;50.50;;;;;;4978020;28;20055;-62
2022/10/31 05:20:11;;;;;;;2.70;2.50;;;22.60;50.50;;;;;;4977967;28;20054;-62
2022/10/31 05:22:43;;;;;;;2.67;2.47;;;22.60;50.50;;;;;;4978217;28;20050;-62
2022/10/31 05:25:11;;;;;;;2.85;2.65;;;22.60;50.50;;;;;;4977907;28;20057;-62
2022/10/31 05:27:43;;;;;;;2.95;2.75;;;22.60;50.50;;;;;;4977780;28;20062;-62
2022/10/31 05:30:12;;;;;;;2.40;2.20;;;22.60;50.50;;;;;;4978062;28;20051;-62
2022/10/31 05:32:45;;;;;;;2.70;2.50;;;22.60;50.50;;;;;;4977880;28;20046;-62
2022/10/31 05:35:17;;;;;;;2.80;2.60;;;22.60;50.50;;;;;;4977704;28;20514;-62
2022/10/31 05:37:45;;;;;;;3.45;3.13;;;22.50;50.40;;;;;;4978072;28;20512;-62
2022/10/31 05:40:14;;;;;;;2.90;2.70;;;22.60;50.40;;;;;;4977986;28;20047;-62
2022/10/31 05:42:42;;;;;;;3.08;2.80;;;22.50;50.30;;;;;;4977966;28;20402;-62
2022/10/31 05:45:12;;;;;;;2.92;2.72;;;22.60;50.30;;;;;;4977592;28;20078;-63
2022/10/31 05:47:39;;;;;;;3.50;3.20;;;22.50;50.20;;;;;;4977962;28;20047;-62
2022/10/31 05:50:07;;;;;;;2.55;2.40;;;22.60;50.20;;;;;;4977556;28;20043;-63
2022/10/31 05:52:35;;;;;;;2.95;2.75;;;22.60;50.20;;;;;;4977859;28;20407;-62
2022/10/31 05:55:03;;;;;;;3.10;2.85;;;22.60;50.20;;;;;;4977810;28;20053;-63
2022/10/31 05:57:32;;;;;;;2.83;2.63;;;22.60;50.10;;;;;;4977837;28;20051;-63
2022/10/31 05:59:59;;;;;;;3.22;3.03;;;22.60;50.10;;;;;;4977422;28;20046;-63
2022/10/31 06:02:27;;;;;;;2.95;2.75;;;22.60;50.10;;;;;;4977438;28;20540;-63
2022/10/31 06:04:54;;;;;;;3.20;2.95;;;22.60;50.00;;;;;;4977599;28;20515;-62
2022/10/31 06:07:21;;;;;;;2.78;2.58;;;22.50;49.90;;;;;;4977529;28;20479;-62
2022/10/31 06:09:48;;;;;;;3.30;2.92;;;22.60;49.90;;;;;;4977522;28;20047;-61
2022/10/31 06:12:15;;;;;;;3.60;3.40;;;22.60;49.90;;;;;;4960326;28;20054;-62
2022/10/31 06:14:42;;;;;;;3.47;3.28;;;22.50;49.80;;;;;;4977445;28;20101;-62
2022/10/31 06:17:09;;;;;;;3.17;2.90;;;22.60;49.80;;;;;;4976638;28;20047;-62
2022/10/31 06:19:36;;;;;;;2.58;2.45;;;22.60;49.80;;;;;;4977703;28;20051;-62
2022/10/31 06:22:03;;;;;;;3.47;3.17;;;22.60;49.70;;;;;;4978615;28;20086;-62
2022/10/31 06:24:30;;;;;;;3.05;2.85;;;22.50;49.60;;;;;;4981265;28;20058;-62
2022/10/31 06:26:57;;;;;;;2.85;2.65;;;22.50;49.60;;;;;;4980754;28;20066;-62
2022/10/31 06:29:24;;;;;;;3.40;3.17;;;22.50;49.50;;;;;;4981122;28;20051;-62
2022/10/31 06:31:51;;;;;;;2.65;2.47;;;22.60;49.50;;;;;;4979433;28;20507;-62
2022/10/31 06:34:18;;;;;;;2.72;2.53;;;22.60;49.50;;;;;;4980753;28;20480;-62
2022/10/31 06:36:46;;;;;;;2.70;2.50;;;22.60;50.00;;;;;;4963379;28;20521;-63
2022/10/31 06:39:14;;;;;;;3.28;3.03;;;22.60;49.40;;;;;;4979525;28;20047;-62
2022/10/31 06:41:41;;;;;;;2.20;2.10;;;22.60;49.40;;;;;;4979546;28;20105;-62
2022/10/31 06:44:08;;;;;;;3.42;3.17;;;22.60;49.30;;;;;;4980636;28;20054;-62
2022/10/31 06:46:35;;;;;;;3.17;2.97;;;22.60;49.30;;;;;;4979247;28;20059;-62
2022/10/31 06:49:02;;;;;;;3.05;2.85;;;22.60;49.20;;;;;;4980736;28;20053;-62
2022/10/31 06:51:29;;;;;;;2.95;2.75;;;22.60;49.20;;;;;;4980764;28;20065;-62
2022/10/31 06:53:56;;;;;;;3.53;3.22;;;22.60;49.20;;;;;;4980636;28;20488;-62
2022/10/31 06:56:23;;;;;;;3.38;2.90;;;22.60;49.10;;;;;;4980600;28;20058;-62
2022/10/31 06:58:50;;;;;;;2.88;2.67;;;22.60;49.10;;;;;;4979332;28;20073;-62
2022/10/31 07:01:17;;;;;;;3.20;3.00;;;22.60;49.10;;;;;;4980612;28;20078;-62
2022/10/31 07:03:44;;;;;;;3.08;2.88;;;22.60;49.00;;;;;;4978945;28;20046;-62
2022/10/31 07:06:11;;;;;;;3.03;2.83;;;22.60;49.00;;;;;;4980137;28;20101;-62
2022/10/31 07:08:38;;;;;;;3.03;2.83;;;22.60;49.00;;;;;;4980369;28;20059;-62
2022/10/31 07:11:05;;;;;;;3.28;3.08;;;22.60;49.00;;;;;;4980299;28;20057;-62
2022/10/31 07:13:33;;;;;;;3.40;3.17;;;22.60;48.90;;;;;;4980040;28;20050;-62
2022/10/31 07:16:02;;;;;;;3.50;3.30;;;22.70;49.00;;;;;;4980025;28;20042;-62
2022/10/31 07:18:29;;;;;;;3.70;3.45;;;22.70;48.90;;;;;;4980120;28;20055;-62
2022/10/31 07:20:56;;;;;;;3.00;2.80;;;22.70;48.80;;;;;;4979957;28;20431;-62
2022/10/31 07:23:23;;;;;;;3.30;3.00;;;22.70;48.80;;;;;;4978616;28;20054;-62
2022/10/31 07:25:56;;;;;;;3.60;3.30;;;22.70;48.80;;;;;;4979864;28;20051;-62
2022/10/31 07:28:24;;;;;;;3.08;2.78;;;22.70;48.70;;;;;;4979974;28;20047;-62
2022/10/31 07:30:56;;;;;;;2.90;2.70;;;22.70;48.70;;;;;;4980016;28;20047;-62
2022/10/31 07:33:25;;;;;;;3.03;2.83;;;22.80;48.70;;;;;;4979639;28;20058;-63
2022/10/31 07:35:53;;;;;;;2.90;2.70;;;22.80;48.60;;;;;;4979949;28;20051;-62
2022/10/31 07:38:20;;;;;;;3.20;3.00;;;22.80;48.60;;;;;;4979358;28;20273;-62
2022/10/31 07:40:52;;;;;;;3.60;3.30;;;22.80;48.50;;;;;;4979929;28;20062;-62
2022/10/31 07:43:19;;;;;;;3.10;2.90;;;22.80;48.50;;;;;;4979601;28;20476;-59
2022/10/31 07:45:53;;;;;;;3.55;3.25;;;22.80;48.50;;;;;;4979446;28;20050;-63
2022/10/31 07:48:20;;;;;;;2.97;2.78;;;22.80;48.50;;;;;;4979300;28;20055;-62
2022/10/31 07:50:48;;;;;;;3.60;3.30;;;22.90;48.50;;;;;;4979563;28;20058;-62
2022/10/31 07:53:15;;;;;;;3.42;3.20;;;22.90;48.40;;;;;;4979312;28;20051;-62
2022/10/31 07:55:42;;;;;;;3.30;3.10;;;22.90;48.40;;;;;;4979734;28;20051;-62
2022/10/31 07:58:12;;;;;;;3.55;3.25;;;22.90;48.30;;;;;;4978227;28;20047;-62
2022/10/31 08:00:41;;;;;;;3.70;3.40;;;22.90;48.30;;;;;;4978205;28;20118;-62
2022/10/31 08:03:14;;;;;;;3.80;3.50;;;22.90;48.30;;;;;;4979575;28;20290;-62
2022/10/31 08:05:42;;;;;;;3.92;3.45;;;22.90;48.20;;;;;;4979141;28;20059;-62
2022/10/31 08:08:09;;;;;;;3.33;3.00;;;23.00;48.20;;;;;;4979375;28;20051;-62
2022/10/31 08:10:36;;;;;;;4.28;3.90;;;23.00;48.20;;;;;;4979007;28;20053;-62
2022/10/31 08:13:12;;;;;;;4.03;3.72;;;23.00;48.20;;;;;;4978927;28;20054;-62
2022/10/31 08:15:41;;;;;;;4.18;3.58;;;23.00;48.10;;;;;;4979027;28;20057;-62
2022/10/31 08:18:13;;;;;;;3.55;3.25;;;23.00;48.10;;;;;;4978010;28;20054;-62
2022/10/31 08:20:41;;;;;;;4.30;3.90;;;23.00;48.00;;;;;;4978647;28;20110;-62
2022/10/31 08:23:10;;;;;;;4.70;4.18;;;23.00;48.00;;;;;;4978656;28;20510;-62
2022/10/31 08:25:37;;;;;;;4.53;4.13;;;23.00;48.00;;;;;;4978654;28;20050;-62
2022/10/31 08:28:06;;;;;;;4.65;4.15;;;23.00;48.00;;;;;;4978441;28;20054;-62
2022/10/31 08:30:35;;;;;;;4.28;3.90;;;23.10;48.00;;;;;;4978938;28;20126;-62
2022/10/31 08:33:10;;;;;;;4.80;4.40;;;23.10;48.00;;;;;;4978372;28;20050;-62
2022/10/31 08:35:37;;;;;;;4.28;3.97;;;23.10;47.90;;;;;;4978850;28;20381;-63
2022/10/31 08:38:05;;;;;;;4.90;4.50;;;23.10;48.00;;;;;;4978517;28;20047;-62
2022/10/31 08:40:33;;;;;;;4.38;4.00;;;23.10;47.90;;;;;;4978331;28;20058;-62
2022/10/31 08:43:02;;;;;;;4.78;4.00;;;23.10;47.80;;;;;;4977460;28;20054;-59
2022/10/31 08:45:31;;;;;;;4.60;4.20;;;23.20;47.90;;;;;;4978049;28;20061;-63
2022/10/31 08:47:59;;;;;;;5.75;4.50;;;23.20;47.80;;;;;;4978304;28;20058;-62
2022/10/31 08:50:29;;;;;;;4.90;4.50;;;23.20;47.70;;;;;;4978577;28;20066;-63
2022/10/31 08:53:02;;;;;;;4.93;4.45;;;23.20;47.70;;;;;;4978232;28;20511;-63
2022/10/31 08:55:34;;;;;;;4.68;4.05;;;23.20;48.20;;;;;;4978256;28;20050;-62
2022/10/31 08:58:03;;;;;;;4.85;4.40;;;23.30;47.60;;;;;;4978622;28;20526;-62
2022/10/31 09:00:31;;;;;;;5.40;4.57;;;23.30;47.60;;;;;;4978417;28;20082;-62
2022/10/31 09:03:00;;;;;;;5.72;4.63;;;23.30;47.60;;;;;;4978379;28;20427;-63
2022/10/31 09:05:27;;;;;;;4.75;4.30;;;23.30;47.60;;;;;;4978099;28;20061;-63
2022/10/31 09:07:58;;;;;;;4.60;4.20;;;23.30;47.60;;;;;;4977921;28;20134;-63
2022/10/31 09:10:28;;;;;;;5.32;4.57;;;23.30;47.60;;;;;;4977148;28;20050;-62
2022/10/31 09:12:57;;;;;;;5.68;4.97;;;23.30;47.50;;;;;;4978344;28;20051;-63
2022/10/31 09:15:26;;;;;;;5.78;5.25;;;23.30;47.50;;;;;;4977057;28;20047;-62
2022/10/31 09:17:53;;;;;;;5.75;5.05;;;23.30;47.50;;;;;;4977934;28;20089;-63
2022/10/31 09:20:21;;;;;;;5.25;4.72;;;23.30;47.50;;;;;;4978395;28;20046;-63
2022/10/31 09:22:54;;;;;;;6.43;5.10;;;23.40;47.60;;;;;;4977857;28;20503;-63
2022/10/31 09:25:21;;;;;;;5.43;4.93;;;23.40;47.50;;;;;;4978099;28;20046;-63
2022/10/31 09:27:48;;;;;;;6.10;5.50;;;23.40;47.50;;;;;;4977878;28;20061;-63
2022/10/31 09:30:15;;;;;;;6.00;5.40;;;23.40;47.50;;;;;;4978272;28;20483;-63
2022/10/31 09:32:43;;;;;;;5.32;4.82;;;23.40;47.40;;;;;;4978009;28;20055;-63
2022/10/31 09:35:10;;;;;;;5.53;5.03;;;23.40;47.40;;;;;;4977638;28;20130;-63
2022/10/31 09:37:38;;;;;;;5.95;5.35;;;23.40;47.40;;;;;;4978045;28;20051;-63
2022/10/31 09:40:05;;;;;;;6.20;5.45;;;23.40;47.40;;;;;;4976744;28;20072;-63
2022/10/31 09:43:12;;;;;;;7.38;5.53;;;23.40;47.30;;;;;;4978311;28;20051;-63
2022/10/31 09:45:59;;;;;;;5.93;5.30;;;23.50;47.30;;;;;;4977037;28;20046;-63
2022/10/31 09:48:42;;;;;;;6.03;5.38;;;23.50;47.30;;;;;;4976881;28;20065;-63
2022/10/31 09:51:15;;;;;;;6.38;5.55;;;23.50;47.30;;;;;;4977872;28;20047;-63
2022/10/31 09:53:59;;;;;;;6.57;5.78;;;23.50;47.30;;;;;;4977940;28;20056;-63
2022/10/31 09:56:27;;;;;;;6.38;5.60;;;23.50;47.20;;;;;;4978192;28;20074;-62
2022/10/31 09:58:59;;;;;;;6.25;5.63;;;23.60;47.30;;;;;;4981571;28;20058;-62
2022/10/31 10:01:48;;;;;;;6.70;6.10;;;23.60;47.20;;;;;;4981882;28;20406;-62
2022/10/31 10:04:41;;;;;;;6.07;5.55;;;23.60;47.20;;;;;;4981363;28;20483;-62
2022/10/31 10:07:39;;;;;;;10.02;6.28;;;23.60;47.20;;;;;;4981144;28;20051;-62
2022/10/31 10:10:34;;;;;;;6.05;5.50;;;23.60;47.20;;;;;;4980863;28;20046;-63
2022/10/31 10:13:31;;;;;;;6.50;5.80;;;23.60;47.20;;;;;;4980829;28;20058;-63
2022/10/31 10:16:19;;;;;;;6.93;6.22;;;23.70;47.20;;;;;;4981363;28;20050;-62
2022/10/31 10:19:12;;;;;;;6.97;6.28;;;23.70;47.20;;;;;;4981155;28;20055;-63
2022/10/31 10:22:10;;;;;;;6.25;5.65;;;23.70;47.10;;;;;;4981201;28;20051;-62
2022/10/31 10:25:05;;;;;;;8.10;6.63;;;23.70;47.10;;;;;;4980964;28;20055;-62
2022/10/31 10:27:47;;;;;;;7.13;6.38;;;23.70;47.10;;;;;;4979479;28;20487;-62
2022/10/31 10:30:17;;;;;;;5.88;5.30;;;23.80;47.10;;;;;;4980693;28;20047;-63
2022/10/31 10:33:00;;;;;;;6.63;5.95;;;23.70;47.00;;;;;;4980712;28;20047;-62
2022/10/31 10:35:47;;;;;;;6.82;5.80;;;23.80;47.10;;;;;;4981715;28;20050;-62
2022/10/31 10:38:34;;;;;;;6.22;5.63;;;23.80;47.10;;;;;;4980786;28;20051;-62
2022/10/31 10:41:06;;;;;;;8.65;6.05;;;23.80;47.10;;;;;;4980909;28;20054;-62
2022/10/31 10:43:35;;;;;;;7.35;6.47;;;23.80;47.10;;;;;;4979544;28;20050;-63
2022/10/31 10:49:26;;;;;;;7.03;6.30;;;23.80;47.10;;;;;;4980683;28;20510;-62
2022/10/31 10:52:14;;;;;;;7.00;6.13;;;23.80;47.10;;;;;;4980499;28;20051;-63
2022/10/31 10:55:32;;;;;;;6.55;5.90;;;23.80;47.10;;;;;;4980323;28;20121;-62
2022/10/31 10:58:06;;;;;;;7.03;6.13;;;23.80;47.10;;;;;;4979785;28;20137;-63
2022/10/31 11:00:40;;;;;;;7.55;6.00;;;23.80;47.10;;;;;;4980825;28;20125;-63
2022/10/31 11:03:09;;;;;;;6.57;5.82;;;23.90;47.20;;;;;;4980552;28;20051;-62
2022/10/31 11:05:53;;;;;;;6.35;5.57;;;23.90;47.20;;;;;;4980584;28;20051;-62
2022/10/31 11:08:28;;;;;;;6.97;6.28;;;23.80;47.70;;;;;;4979911;28;20058;-62
2022/10/31 11:11:07;;;;;;;7.32;6.38;;;23.80;47.20;;;;;;4979268;28;20497;-63
2022/10/31 11:13:35;;;;;;;7.18;6.47;;;23.80;47.20;;;;;;4980192;28;20484;-62
2022/10/31 11:16:07;;;;;;;8.02;6.78;;;23.90;47.30;;;;;;4980248;28;20046;-62
2022/10/31 11:18:39;;;;;;;7.53;6.43;;;23.90;47.30;;;;;;4979073;28;20051;-63
2022/10/31 11:21:19;;;;;;;7.32;6.45;;;23.90;47.30;;;;;;4980979;28;20046;-62
2022/10/31 11:23:46;;;;;;;7.72;6.85;;;23.80;47.30;;;;;;4978931;28;20510;-63
2022/10/31 11:26:20;;;;;;;7.07;6.32;;;23.90;47.30;;;;;;4979772;28;20047;-62
2022/10/31 11:28:59;;;;;;;6.63;5.97;;;23.80;47.30;;;;;;4979811;28;20051;-62
2022/10/31 11:31:27;;;;;;;7.82;6.47;;;23.90;47.40;;;;;;4980038;28;20054;-63
2022/10/31 11:34:00;;;;;;;6.95;6.25;;;23.80;47.40;;;;;;4979996;28;20050;-62
2022/10/31 11:36:30;;;;;;;7.10;6.40;;;23.90;47.40;;;;;;4979940;28;20474;-63
2022/10/31 11:39:01;;;;;;;7.65;6.85;;;23.90;47.40;;;;;;4980025;28;20050;-62
2022/10/31 11:41:36;;;;;;;6.82;6.13;;;23.90;47.50;;;;;;4979247;28;20054;-62
2022/10/31 11:44:13;;;;;;;7.22;6.30;;;23.90;47.50;;;;;;4979673;28;20057;-62
2022/10/31 11:46:44;;;;;;;7.10;6.40;;;23.90;47.50;;;;;;4979850;28;20043;-63
2022/10/31 11:49:25;;;;;;;7.70;6.90;;;23.90;47.50;;;;;;4979157;28;20530;-62
2022/10/31 11:51:53;;;;;;;;;;;23.90;47.50;;;;;;4979847;28;20054;-62
2022/10/31 11:54:32;;;;;;;7.32;6.63;;;23.90;47.50;;;;;;4979513;28;19929;-61
2022/10/31 11:56:59;;;;;;;8.63;7.40;;;23.90;47.50;;;;;;4979370;28;20054;-62
2022/10/31 11:59:30;;;;;;;7.50;6.70;;;23.90;47.50;;;;;;4979239;28;20050;-62
2022/10/31 12:01:59;;;;;;;9.15;7.55;;;23.90;47.50;;;;;;4978736;28;20058;-63
2022/10/31 12:04:48;;;;;;;8.03;7.23;;;23.90;47.60;;;;;;4979561;28;20407;-59
2022/10/31 12:07:15;;;;;;;7.30;6.50;;;23.90;47.60;;;;;;4978974;28;20050;-62
2022/10/31 12:09:43;;;;;;;6.97;6.25;;;23.90;47.60;;;;;;4979087;28;20054;-62
2022/10/31 12:12:30;;;;;;;7.80;6.63;;;23.90;47.60;;;;;;4978875;28;20510;-62
2022/10/31 12:15:32;;;;;;;8.25;7.05;;;23.90;47.60;;;;;;4978013;28;20056;-62
2022/10/31 12:18:25;;;;;;;7.55;6.85;;;23.90;47.60;;;;;;4979052;28;20071;-63
2022/10/31 12:21:16;;;;;;;9.20;7.55;;;23.90;47.60;;;;;;4978211;28;20051;-62
2022/10/31 12:24:07;;;;;;;8.27;7.22;;;23.90;47.60;;;;;;4979684;28;20055;-63
2022/10/31 12:27:02;;;;;;;6.97;6.38;;;23.90;47.60;;;;;;4979653;28;20051;-63
2022/10/31 12:29:56;;;;;;;8.13;7.28;;;23.90;47.70;;;;;;4965883;28;20051;-58
2022/10/31 12:32:40;;;;;;;8.05;7.10;;;23.90;47.70;;;;;;4977799;28;20050;-59
2022/10/31 12:35:34;;;;;;;8.00;7.03;;;23.90;47.70;;;;;;4979522;28;20051;-63
2022/10/31 12:38:17;;;;;;;8.63;7.72;;;23.90;47.70;;;;;;4979365;28;20051;-63
2022/10/31 12:41:16;;;;;;;7.97;7.05;;;23.90;47.70;;;;;;4978634;28;20057;-62
2022/10/31 12:44:02;;;;;;;7.40;6.70;;;23.90;47.70;;;;;;4978769;28;20385;-62
2022/10/31 12:46:51;;;;;;;7.68;6.90;;;23.90;47.70;;;;;;4977357;28;20050;-63
2022/10/31 12:49:52;;;;;;;8.02;7.13;;;23.90;47.70;;;;;;4978840;28;20514;-63
2022/10/31 12:52:54;;;;;;;7.80;7.00;;;23.90;47.70;;;;;;4978935;28;20113;-62
2022/10/31 12:56:00;;;;;;;8.05;7.22;;;23.90;47.80;;;;;;4977060;28;20051;-62
2022/10/31 12:58:40;;;;;;;7.95;6.82;;;23.90;47.80;;;;;;4977292;28;20055;-63
2022/10/31 13:01:23;;;;;;;8.07;7.28;;;23.90;47.90;;;;;;4961802;28;20057;-62
2022/10/31 13:04:03;;;;;;;8.30;7.40;;;23.90;47.90;;;;;;4978183;28;20082;-62
2022/10/31 13:06:38;;;;;;;7.22;6.53;;;23.90;47.90;;;;;;4978335;28;20134;-62
2022/10/31 13:09:26;;;;;;;7.45;6.75;;;23.90;47.90;;;;;;4978292;28;20133;-62
2022/10/31 13:12:00;;;;;;;8.02;7.22;;;23.90;47.90;;;;;;4978189;28;20082;-62
2022/10/31 13:14:36;;;;;;;8.00;7.18;;;23.90;47.90;;;;;;4978072;28;20571;-62
2022/10/31 13:17:05;;;;;;;7.75;7.05;;;23.90;47.90;;;;;;4978011;28;20510;-62
2022/10/31 13:19:39;;;;;;;7.43;6.60;;;23.90;47.90;;;;;;4977912;28;20054;-62
2022/10/31 13:22:17;;;;;;;7.55;6.75;;;23.90;47.90;;;;;;4977846;28;20047;-62
2022/10/31 13:25:09;;;;;;;7.63;6.85;;;23.90;47.90;;;;;;4977831;28;20055;-62